sensor_id;sensor_type;location;lat;lon;timestamp;temperature;humidity
18777;DHT22;9517;51.174;4.160;2023-09-19T00:00:19;15.50;99.90
18777;DHT22;9517;51.174;4.160;2023-09-19T00:02:52;15.50;99.90
18777;DHT22;9517;51.174;4.160;2023-09-19T00:05:20;15.40;99.90
18777;DHT22;9517;51.174;4.160;2023-09-19T00:07:50;15.40;99.90
18777;DHT22;9517;51.174;4.160;2023-09-19T00:10:19;15.40;99.90
18777;DHT22;9517;51.174;4.160;2023-09-19T00:12:49;15.40;99.90
18777;DHT22;9517;51.174;4.160;2023-09-19T00:15:17;15.30;99.90
18777;DHT22;9517;51.174;4.160;2023-09-19T00:17:44;15.30;99.90
18777;DHT22;9517;51.174;4.160;2023-09-19T00:20:13;15.30;99.90
18777;DHT22;9517;51.174;4.160;2023-09-19T00:22:43;15.40;99.90
18777;DHT22;9517;51.174;4.160;2023-09-19T00:25:10;15.40;99.90
18777;DHT22;9517;51.174;4.160;2023-09-19T00:27:38;15.30;99.90
18777;DHT22;9517;51.174;4.160;2023-09-19T00:30:11;15.30;99.90
18777;DHT22;9517;51.174;4.160;2023-09-19T00:32:40;15.30;99.90
18777;DHT22;9517;51.174;4.160;2023-09-19T00:35:08;15.30;99.90
18777;DHT22;9517;51.174;4.160;2023-09-19T00:37:36;15.20;99.90
18777;DHT22;9517;51.174;4.160;2023-09-19T00:40:06;15.20;99.90
18777;DHT22;9517;51.174;4.160;2023-09-19T00:42:37;15.20;99.90
18777;DHT22;9517;51.174;4.160;2023-09-19T00:45:06;15.10;99.90
18777;DHT22;9517;51.174;4.160;2023-09-19T00:47:36;15.20;99.90
18777;DHT22;9517;51.174;4.160;2023-09-19T00:50:05;15.10;99.90
18777;DHT22;9517;51.174;4.160;2023-09-19T00:52:34;15.10;99.90
18777;DHT22;9517;51.174;4.160;2023-09-19T00:55:02;15.10;99.90
18777;DHT22;9517;51.174;4.160;2023-09-19T00:57:30;15.10;99.90
18777;DHT22;9517;51.174;4.160;2023-09-19T01:00:00;15.10;99.90
18777;DHT22;9517;51.174;4.160;2023-09-19T01:02:31;15.00;99.90
18777;DHT22;9517;51.174;4.160;2023-09-19T01:05:00;15.10;99.90
18777;DHT22;9517;51.174;4.160;2023-09-19T01:07:31;15.10;99.90
18777;DHT22;9517;51.174;4.160;2023-09-19T01:09:59;15.00;99.90
18777;DHT22;9517;51.174;4.160;2023-09-19T01:12:34;15.00;99.90
18777;DHT22;9517;51.174;4.160;2023-09-19T01:15:11;14.90;99.90
18777;DHT22;9517;51.174;4.160;2023-09-19T01:17:48;14.90;99.90
18777;DHT22;9517;51.174;4.160;2023-09-19T01:20:30;14.90;99.90
18777;DHT22;9517;51.174;4.160;2023-09-19T01:23:08;14.80;99.90
18777;DHT22;9517;51.174;4.160;2023-09-19T01:28:52;14.70;99.90
18777;DHT22;9517;51.174;4.160;2023-09-19T01:31:25;14.80;99.90
18777;DHT22;9517;51.174;4.160;2023-09-19T01:33:57;14.80;99.90
18777;DHT22;9517;51.174;4.160;2023-09-19T01:36:26;14.70;99.90
18777;DHT22;9517;51.174;4.160;2023-09-19T01:38:55;14.70;99.90
18777;DHT22;9517;51.174;4.160;2023-09-19T01:41:33;14.70;99.90
18777;DHT22;9517;51.174;4.160;2023-09-19T01:44:06;14.70;99.90
18777;DHT22;9517;51.174;4.160;2023-09-19T01:46:40;14.70;99.90
18777;DHT22;9517;51.174;4.160;2023-09-19T01:49:18;14.60;99.90
18777;DHT22;9517;51.174;4.160;2023-09-19T01:51:55;14.70;99.90
18777;DHT22;9517;51.174;4.160;2023-09-19T01:54:33;14.60;99.90
18777;DHT22;9517;51.174;4.160;2023-09-19T01:57:07;14.70;99.90
18777;DHT22;9517;51.174;4.160;2023-09-19T01:59:57;14.60;99.90
18777;DHT22;9517;51.174;4.160;2023-09-19T02:02:28;14.60;99.90
18777;DHT22;9517;51.174;4.160;2023-09-19T02:04:56;14.60;99.90
18777;DHT22;9517;51.174;4.160;2023-09-19T02:07:24;14.60;99.90
18777;DHT22;9517;51.174;4.160;2023-09-19T02:09:53;14.60;99.90
18777;DHT22;9517;51.174;4.160;2023-09-19T02:12:20;14.60;99.90
18777;DHT22;9517;51.174;4.160;2023-09-19T02:14:48;14.60;99.90
18777;DHT22;9517;51.174;4.160;2023-09-19T02:17:15;14.60;99.90
18777;DHT22;9517;51.174;4.160;2023-09-19T02:19:44;14.70;99.90
18777;DHT22;9517;51.174;4.160;2023-09-19T02:22:12;14.60;99.90
18777;DHT22;9517;51.174;4.160;2023-09-19T02:24:40;14.70;99.90
18777;DHT22;9517;51.174;4.160;2023-09-19T02:27:07;14.70;99.90
18777;DHT22;9517;51.174;4.160;2023-09-19T02:29:34;14.70;99.90
18777;DHT22;9517;51.174;4.160;2023-09-19T02:32:01;14.70;99.90
18777;DHT22;9517;51.174;4.160;2023-09-19T02:34:29;14.70;99.90
18777;DHT22;9517;51.174;4.160;2023-09-19T02:36:58;14.70;99.90
18777;DHT22;9517;51.174;4.160;2023-09-19T02:39:25;14.70;99.90
18777;DHT22;9517;51.174;4.160;2023-09-19T02:41:53;14.70;99.90
18777;DHT22;9517;51.174;4.160;2023-09-19T02:44:21;14.80;99.90
18777;DHT22;9517;51.174;4.160;2023-09-19T02:46:49;14.80;99.90
18777;DHT22;9517;51.174;4.160;2023-09-19T02:49:16;14.90;99.90
18777;DHT22;9517;51.174;4.160;2023-09-19T02:51:44;15.00;99.90
18777;DHT22;9517;51.174;4.160;2023-09-19T02:54:15;14.90;99.90
18777;DHT22;9517;51.174;4.160;2023-09-19T02:56:43;15.10;99.90
18777;DHT22;9517;51.174;4.160;2023-09-19T02:59:10;15.10;99.90
18777;DHT22;9517;51.174;4.160;2023-09-19T03:01:38;15.10;99.90
18777;DHT22;9517;51.174;4.160;2023-09-19T03:04:05;15.10;99.90
18777;DHT22;9517;51.174;4.160;2023-09-19T03:06:35;15.20;99.90
18777;DHT22;9517;51.174;4.160;2023-09-19T03:09:04;15.20;99.90
18777;DHT22;9517;51.174;4.160;2023-09-19T03:11:40;15.20;99.90
18777;DHT22;9517;51.174;4.160;2023-09-19T03:14:08;15.20;99.90
18777;DHT22;9517;51.174;4.160;2023-09-19T03:16:36;15.20;99.90
18777;DHT22;9517;51.174;4.160;2023-09-19T03:19:04;15.20;99.90
18777;DHT22;9517;51.174;4.160;2023-09-19T03:21:31;15.20;99.90
18777;DHT22;9517;51.174;4.160;2023-09-19T03:23:59;15.30;99.90
18777;DHT22;9517;51.174;4.160;2023-09-19T03:26:26;15.30;99.90
18777;DHT22;9517;51.174;4.160;2023-09-19T03:28:55;15.20;99.90
18777;DHT22;9517;51.174;4.160;2023-09-19T03:31:22;15.00;99.90
18777;DHT22;9517;51.174;4.160;2023-09-19T03:33:49;14.90;99.90
18777;DHT22;9517;51.174;4.160;2023-09-19T03:36:17;14.90;99.90
18777;DHT22;9517;51.174;4.160;2023-09-19T03:38:44;14.90;99.90
18777;DHT22;9517;51.174;4.160;2023-09-19T03:41:12;14.90;99.90
18777;DHT22;9517;51.174;4.160;2023-09-19T03:43:43;15.00;99.90
18777;DHT22;9517;51.174;4.160;2023-09-19T03:46:11;15.00;99.90
18777;DHT22;9517;51.174;4.160;2023-09-19T03:48:40;15.00;99.90
18777;DHT22;9517;51.174;4.160;2023-09-19T03:51:08;14.90;99.90
18777;DHT22;9517;51.174;4.160;2023-09-19T03:53:36;14.80;99.90
18777;DHT22;9517;51.174;4.160;2023-09-19T03:56:03;14.70;99.90
18777;DHT22;9517;51.174;4.160;2023-09-19T03:58:30;14.70;99.90
18777;DHT22;9517;51.174;4.160;2023-09-19T04:00:59;14.70;99.90
18777;DHT22;9517;51.174;4.160;2023-09-19T04:03:28;14.70;99.90
18777;DHT22;9517;51.174;4.160;2023-09-19T04:06:00;14.70;99.90
18777;DHT22;9517;51.174;4.160;2023-09-19T04:08:28;14.70;99.90
18777;DHT22;9517;51.174;4.160;2023-09-19T04:10:55;14.70;99.90
18777;DHT22;9517;51.174;4.160;2023-09-19T04:13:22;14.60;99.90
18777;DHT22;9517;51.174;4.160;2023-09-19T04:15:49;14.60;99.90
18777;DHT22;9517;51.174;4.160;2023-09-19T04:18:16;14.60;99.90
18777;DHT22;9517;51.174;4.160;2023-09-19T04:20:49;14.50;99.90
18777;DHT22;9517;51.174;4.160;2023-09-19T04:23:16;14.50;99.90
18777;DHT22;9517;51.174;4.160;2023-09-19T04:25:45;14.60;99.90
18777;DHT22;9517;51.174;4.160;2023-09-19T04:28:15;14.50;99.90
18777;DHT22;9517;51.174;4.160;2023-09-19T04:30:43;14.40;99.90
18777;DHT22;9517;51.174;4.160;2023-09-19T04:33:11;14.50;99.90
18777;DHT22;9517;51.174;4.160;2023-09-19T04:35:40;14.40;99.90
18777;DHT22;9517;51.174;4.160;2023-09-19T04:38:12;14.40;99.90
18777;DHT22;9517;51.174;4.160;2023-09-19T04:40:47;14.40;99.90
18777;DHT22;9517;51.174;4.160;2023-09-19T04:43:20;14.40;99.90
18777;DHT22;9517;51.174;4.160;2023-09-19T04:45:51;14.40;99.90
18777;DHT22;9517;51.174;4.160;2023-09-19T04:48:21;14.40;99.90
18777;DHT22;9517;51.174;4.160;2023-09-19T04:50:51;14.40;99.90
18777;DHT22;9517;51.174;4.160;2023-09-19T04:53:20;14.40;99.90
18777;DHT22;9517;51.174;4.160;2023-09-19T04:55:50;14.40;99.90
18777;DHT22;9517;51.174;4.160;2023-09-19T04:58:23;14.40;99.90
18777;DHT22;9517;51.174;4.160;2023-09-19T05:02:36;14.40;99.90
18777;DHT22;9517;51.174;4.160;2023-09-19T05:04:54;14.50;99.90
18777;DHT22;9517;51.174;4.160;2023-09-19T05:07:32;14.50;99.90
18777;DHT22;9517;51.174;4.160;2023-09-19T05:10:03;14.40;99.90
18777;DHT22;9517;51.174;4.160;2023-09-19T05:12:33;14.40;99.90
18777;DHT22;9517;51.174;4.160;2023-09-19T05:15:04;14.40;99.90
18777;DHT22;9517;51.174;4.160;2023-09-19T05:17:33;14.40;99.90
18777;DHT22;9517;51.174;4.160;2023-09-19T05:20:00;14.40;99.90
18777;DHT22;9517;51.174;4.160;2023-09-19T05:22:31;14.40;99.90
18777;DHT22;9517;51.174;4.160;2023-09-19T05:24:58;14.40;99.90
18777;DHT22;9517;51.174;4.160;2023-09-19T05:27:27;14.30;99.90
18777;DHT22;9517;51.174;4.160;2023-09-19T05:29:54;14.40;99.90
18777;DHT22;9517;51.174;4.160;2023-09-19T05:32:21;14.40;99.90
18777;DHT22;9517;51.174;4.160;2023-09-19T05:34:49;14.40;99.90
18777;DHT22;9517;51.174;4.160;2023-09-19T05:37:18;14.40;99.90
18777;DHT22;9517;51.174;4.160;2023-09-19T05:39:45;14.40;99.90
18777;DHT22;9517;51.174;4.160;2023-09-19T05:42:12;14.40;99.90
18777;DHT22;9517;51.174;4.160;2023-09-19T05:44:41;14.40;99.90
18777;DHT22;9517;51.174;4.160;2023-09-19T05:47:09;14.40;99.90
18777;DHT22;9517;51.174;4.160;2023-09-19T05:49:36;14.40;99.90
18777;DHT22;9517;51.174;4.160;2023-09-19T05:52:05;14.50;99.90
18777;DHT22;9517;51.174;4.160;2023-09-19T05:54:33;14.40;99.90
18777;DHT22;9517;51.174;4.160;2023-09-19T05:57:00;14.40;99.90
18777;DHT22;9517;51.174;4.160;2023-09-19T05:59:28;14.40;99.90
18777;DHT22;9517;51.174;4.160;2023-09-19T06:01:58;14.50;99.90
18777;DHT22;9517;51.174;4.160;2023-09-19T06:04:25;14.50;99.90
18777;DHT22;9517;51.174;4.160;2023-09-19T06:06:56;14.60;99.90
18777;DHT22;9517;51.174;4.160;2023-09-19T06:09:24;14.60;99.90
18777;DHT22;9517;51.174;4.160;2023-09-19T06:11:53;14.50;99.90
18777;DHT22;9517;51.174;4.160;2023-09-19T06:14:23;14.40;99.90
18777;DHT22;9517;51.174;4.160;2023-09-19T06:16:50;14.40;99.90
18777;DHT22;9517;51.174;4.160;2023-09-19T06:19:21;14.40;99.90
18777;DHT22;9517;51.174;4.160;2023-09-19T06:21:52;14.50;99.90
18777;DHT22;9517;51.174;4.160;2023-09-19T06:24:20;14.50;99.90
18777;DHT22;9517;51.174;4.160;2023-09-19T06:26:47;14.60;99.90
18777;DHT22;9517;51.174;4.160;2023-09-19T06:29:15;14.80;99.90
18777;DHT22;9517;51.174;4.160;2023-09-19T06:31:42;14.80;99.90
18777;DHT22;9517;51.174;4.160;2023-09-19T06:34:10;14.80;99.90
18777;DHT22;9517;51.174;4.160;2023-09-19T06:36:38;14.90;99.90
18777;DHT22;9517;51.174;4.160;2023-09-19T06:39:06;14.80;99.90
18777;DHT22;9517;51.174;4.160;2023-09-19T06:41:36;14.80;99.90
18777;DHT22;9517;51.174;4.160;2023-09-19T06:44:04;15.00;99.90
18777;DHT22;9517;51.174;4.160;2023-09-19T06:46:32;15.00;99.90
18777;DHT22;9517;51.174;4.160;2023-09-19T06:49:00;15.00;99.90
18777;DHT22;9517;51.174;4.160;2023-09-19T06:51:31;15.10;99.90
18777;DHT22;9517;51.174;4.160;2023-09-19T06:54:01;15.10;99.90
18777;DHT22;9517;51.174;4.160;2023-09-19T06:56:30;15.10;99.90
18777;DHT22;9517;51.174;4.160;2023-09-19T06:58:58;15.20;99.90
18777;DHT22;9517;51.174;4.160;2023-09-19T07:01:26;15.20;99.90
18777;DHT22;9517;51.174;4.160;2023-09-19T07:03:53;15.30;99.90
18777;DHT22;9517;51.174;4.160;2023-09-19T07:06:20;15.40;99.90
18777;DHT22;9517;51.174;4.160;2023-09-19T07:08:47;15.40;99.90
18777;DHT22;9517;51.174;4.160;2023-09-19T07:11:17;15.40;99.90
18777;DHT22;9517;51.174;4.160;2023-09-19T07:13:45;15.40;99.90
18777;DHT22;9517;51.174;4.160;2023-09-19T07:16:12;15.40;99.90
18777;DHT22;9517;51.174;4.160;2023-09-19T07:18:52;15.50;99.90
18777;DHT22;9517;51.174;4.160;2023-09-19T07:21:20;15.70;99.90
18777;DHT22;9517;51.174;4.160;2023-09-19T07:23:47;15.70;99.90
18777;DHT22;9517;51.174;4.160;2023-09-19T07:26:16;15.80;99.90
18777;DHT22;9517;51.174;4.160;2023-09-19T07:28:44;15.90;99.90
18777;DHT22;9517;51.174;4.160;2023-09-19T07:31:11;16.00;99.90
18777;DHT22;9517;51.174;4.160;2023-09-19T07:33:40;15.90;99.90
18777;DHT22;9517;51.174;4.160;2023-09-19T07:36:10;15.90;99.90
18777;DHT22;9517;51.174;4.160;2023-09-19T07:38:39;16.00;99.90
18777;DHT22;9517;51.174;4.160;2023-09-19T07:41:06;16.20;99.90
18777;DHT22;9517;51.174;4.160;2023-09-19T07:43:36;16.30;99.90
18777;DHT22;9517;51.174;4.160;2023-09-19T07:46:05;16.30;99.90
18777;DHT22;9517;51.174;4.160;2023-09-19T07:48:34;16.40;99.90
18777;DHT22;9517;51.174;4.160;2023-09-19T07:51:04;16.50;99.90
18777;DHT22;9517;51.174;4.160;2023-09-19T07:53:32;16.60;99.90
18777;DHT22;9517;51.174;4.160;2023-09-19T07:56:04;16.70;99.90
18777;DHT22;9517;51.174;4.160;2023-09-19T07:58:32;16.70;99.90
18777;DHT22;9517;51.174;4.160;2023-09-19T08:01:05;16.80;99.90
18777;DHT22;9517;51.174;4.160;2023-09-19T08:03:32;16.80;99.90
18777;DHT22;9517;51.174;4.160;2023-09-19T08:06:00;17.00;99.90
18777;DHT22;9517;51.174;4.160;2023-09-19T08:08:27;17.00;99.90
18777;DHT22;9517;51.174;4.160;2023-09-19T08:10:55;17.10;99.90
18777;DHT22;9517;51.174;4.160;2023-09-19T08:13:23;17.10;99.90
18777;DHT22;9517;51.174;4.160;2023-09-19T08:15:50;17.30;99.90
18777;DHT22;9517;51.174;4.160;2023-09-19T08:18:20;17.50;99.90
18777;DHT22;9517;51.174;4.160;2023-09-19T08:20:52;17.80;99.90
18777;DHT22;9517;51.174;4.160;2023-09-19T08:23:19;17.90;99.90
18777;DHT22;9517;51.174;4.160;2023-09-19T08:25:46;17.90;99.90
18777;DHT22;9517;51.174;4.160;2023-09-19T08:28:14;18.00;99.90
18777;DHT22;9517;51.174;4.160;2023-09-19T08:30:45;18.10;99.90
18777;DHT22;9517;51.174;4.160;2023-09-19T08:33:12;18.40;99.90
18777;DHT22;9517;51.174;4.160;2023-09-19T08:35:42;18.40;99.90
18777;DHT22;9517;51.174;4.160;2023-09-19T08:38:11;18.40;99.90
18777;DHT22;9517;51.174;4.160;2023-09-19T08:40:40;18.30;99.90
18777;DHT22;9517;51.174;4.160;2023-09-19T08:43:08;18.10;99.90
18777;DHT22;9517;51.174;4.160;2023-09-19T08:45:36;18.10;99.90
18777;DHT22;9517;51.174;4.160;2023-09-19T08:48:19;18.30;99.90
18777;DHT22;9517;51.174;4.160;2023-09-19T08:50:53;18.20;99.90
18777;DHT22;9517;51.174;4.160;2023-09-19T08:53:26;18.10;99.90
18777;DHT22;9517;51.174;4.160;2023-09-19T08:55:55;18.10;99.90
18777;DHT22;9517;51.174;4.160;2023-09-19T08:58:27;18.20;99.90
18777;DHT22;9517;51.174;4.160;2023-09-19T09:01:00;18.30;99.90
18777;DHT22;9517;51.174;4.160;2023-09-19T09:03:32;18.20;99.90
18777;DHT22;9517;51.174;4.160;2023-09-19T09:06:02;18.10;99.90
18777;DHT22;9517;51.174;4.160;2023-09-19T09:08:31;18.20;99.90
18777;DHT22;9517;51.174;4.160;2023-09-19T09:10:59;18.10;99.90
18777;DHT22;9517;51.174;4.160;2023-09-19T09:13:26;18.20;99.90
18777;DHT22;9517;51.174;4.160;2023-09-19T09:15:54;18.30;99.90
18777;DHT22;9517;51.174;4.160;2023-09-19T09:18:21;18.30;99.90
18777;DHT22;9517;51.174;4.160;2023-09-19T09:20:49;18.20;99.90
18777;DHT22;9517;51.174;4.160;2023-09-19T09:23:18;18.20;99.90
18777;DHT22;9517;51.174;4.160;2023-09-19T09:25:52;18.20;99.90
18777;DHT22;9517;51.174;4.160;2023-09-19T09:28:23;18.30;99.90
18777;DHT22;9517;51.174;4.160;2023-09-19T09:30:52;18.40;99.90
18777;DHT22;9517;51.174;4.160;2023-09-19T09:33:19;18.40;99.90
18777;DHT22;9517;51.174;4.160;2023-09-19T09:35:51;18.60;99.90
18777;DHT22;9517;51.174;4.160;2023-09-19T09:38:22;18.70;99.90
18777;DHT22;9517;51.174;4.160;2023-09-19T09:40:52;18.80;99.90
18777;DHT22;9517;51.174;4.160;2023-09-19T09:43:29;19.10;99.90
18777;DHT22;9517;51.174;4.160;2023-09-19T09:46:14;19.00;99.90
18777;DHT22;9517;51.174;4.160;2023-09-19T09:49:10;18.80;99.90
18777;DHT22;9517;51.174;4.160;2023-09-19T09:51:59;19.00;99.90
18777;DHT22;9517;51.174;4.160;2023-09-19T09:54:33;19.10;99.90
18777;DHT22;9517;51.174;4.160;2023-09-19T09:57:03;19.20;99.90
18777;DHT22;9517;51.174;4.160;2023-09-19T09:59:47;19.40;99.90
18777;DHT22;9517;51.174;4.160;2023-09-19T10:02:16;19.40;99.90
18777;DHT22;9517;51.174;4.160;2023-09-19T10:04:51;19.30;99.90
18777;DHT22;9517;51.174;4.160;2023-09-19T10:07:33;19.40;99.90
18777;DHT22;9517;51.174;4.160;2023-09-19T10:10:06;19.70;99.90
18777;DHT22;9517;51.174;4.160;2023-09-19T10:12:44;20.00;99.90
18777;DHT22;9517;51.174;4.160;2023-09-19T10:15:15;20.00;99.90
18777;DHT22;9517;51.174;4.160;2023-09-19T10:17:44;19.80;99.90
18777;DHT22;9517;51.174;4.160;2023-09-19T10:20:16;19.80;99.90
18777;DHT22;9517;51.174;4.160;2023-09-19T10:22:50;20.10;99.90
18777;DHT22;9517;51.174;4.160;2023-09-19T10:25:26;20.20;99.90
18777;DHT22;9517;51.174;4.160;2023-09-19T10:27:57;20.40;99.90
18777;DHT22;9517;51.174;4.160;2023-09-19T10:30:27;20.40;99.90
18777;DHT22;9517;51.174;4.160;2023-09-19T10:33:00;20.40;99.90
18777;DHT22;9517;51.174;4.160;2023-09-19T10:35:28;20.80;99.90
18777;DHT22;9517;51.174;4.160;2023-09-19T10:37:59;21.00;99.90
18777;DHT22;9517;51.174;4.160;2023-09-19T10:40:28;21.00;99.90
18777;DHT22;9517;51.174;4.160;2023-09-19T10:43:01;21.10;99.90
18777;DHT22;9517;51.174;4.160;2023-09-19T10:45:31;21.20;99.90
18777;DHT22;9517;51.174;4.160;2023-09-19T10:47:59;21.40;99.90
18777;DHT22;9517;51.174;4.160;2023-09-19T10:50:31;21.70;99.90
18777;DHT22;9517;51.174;4.160;2023-09-19T10:53:04;21.40;99.90
18777;DHT22;9517;51.174;4.160;2023-09-19T10:55:35;21.30;99.90
18777;DHT22;9517;51.174;4.160;2023-09-19T10:58:03;21.50;99.90
18777;DHT22;9517;51.174;4.160;2023-09-19T11:00:53;21.70;99.90
18777;DHT22;9517;51.174;4.160;2023-09-19T11:03:22;21.80;99.90
18777;DHT22;9517;51.174;4.160;2023-09-19T11:06:06;22.30;99.90
18777;DHT22;9517;51.174;4.160;2023-09-19T11:08:54;23.00;99.90
18777;DHT22;9517;51.174;4.160;2023-09-19T11:11:47;23.20;99.90
18777;DHT22;9517;51.174;4.160;2023-09-19T11:14:37;23.30;99.90
18777;DHT22;9517;51.174;4.160;2023-09-19T11:17:29;24.50;99.90
18777;DHT22;9517;51.174;4.160;2023-09-19T11:20:20;24.10;99.90
18777;DHT22;9517;51.174;4.160;2023-09-19T11:23:24;23.60;99.90
18777;DHT22;9517;51.174;4.160;2023-09-19T11:25:52;22.80;99.90
18777;DHT22;9517;51.174;4.160;2023-09-19T11:28:36;22.70;99.90
18777;DHT22;9517;51.174;4.160;2023-09-19T11:34:41;22.00;99.90
18777;DHT22;9517;51.174;4.160;2023-09-19T11:40:44;21.50;99.90
18777;DHT22;9517;51.174;4.160;2023-09-19T11:43:31;21.80;99.90
18777;DHT22;9517;51.174;4.160;2023-09-19T11:46:05;22.40;99.90
18777;DHT22;9517;51.174;4.160;2023-09-19T11:48:33;21.90;99.90
18777;DHT22;9517;51.174;4.160;2023-09-19T11:51:14;21.40;99.90
18777;DHT22;9517;51.174;4.160;2023-09-19T11:53:53;21.30;99.90
18777;DHT22;9517;51.174;4.160;2023-09-19T11:56:21;21.40;99.90
18777;DHT22;9517;51.174;4.160;2023-09-19T11:58:50;21.30;99.90
18777;DHT22;9517;51.174;4.160;2023-09-19T12:01:24;21.10;99.90
18777;DHT22;9517;51.174;4.160;2023-09-19T12:03:55;21.00;99.90
18777;DHT22;9517;51.174;4.160;2023-09-19T12:06:24;21.30;99.90
18777;DHT22;9517;51.174;4.160;2023-09-19T12:08:51;21.10;99.90
18777;DHT22;9517;51.174;4.160;2023-09-19T12:11:20;21.30;99.90
18777;DHT22;9517;51.174;4.160;2023-09-19T12:13:49;21.40;99.90
18777;DHT22;9517;51.174;4.160;2023-09-19T12:16:17;21.30;99.90
18777;DHT22;9517;51.174;4.160;2023-09-19T12:18:49;21.00;99.90
18777;DHT22;9517;51.174;4.160;2023-09-19T12:21:24;20.90;99.90
18777;DHT22;9517;51.174;4.160;2023-09-19T12:24:06;21.10;99.90
18777;DHT22;9517;51.174;4.160;2023-09-19T12:26:40;20.90;99.90
18777;DHT22;9517;51.174;4.160;2023-09-19T12:29:13;21.10;99.90
18777;DHT22;9517;51.174;4.160;2023-09-19T12:31:50;21.00;99.90
18777;DHT22;9517;51.174;4.160;2023-09-19T12:34:22;20.90;99.90
18777;DHT22;9517;51.174;4.160;2023-09-19T12:37:04;20.70;99.90
18777;DHT22;9517;51.174;4.160;2023-09-19T12:39:40;20.90;99.90
18777;DHT22;9517;51.174;4.160;2023-09-19T12:42:09;21.10;99.90
18777;DHT22;9517;51.174;4.160;2023-09-19T12:44:41;21.10;99.90
18777;DHT22;9517;51.174;4.160;2023-09-19T12:47:11;21.10;99.90
18777;DHT22;9517;51.174;4.160;2023-09-19T12:50:08;21.00;99.90
18777;DHT22;9517;51.174;4.160;2023-09-19T12:52:40;20.80;99.90
18777;DHT22;9517;51.174;4.160;2023-09-19T12:55:07;21.00;99.90
18777;DHT22;9517;51.174;4.160;2023-09-19T12:57:36;21.10;99.90
18777;DHT22;9517;51.174;4.160;2023-09-19T13:00:06;21.20;99.90
18777;DHT22;9517;51.174;4.160;2023-09-19T13:02:36;21.20;99.90
18777;DHT22;9517;51.174;4.160;2023-09-19T13:05:04;21.20;99.90
18777;DHT22;9517;51.174;4.160;2023-09-19T13:07:43;21.10;99.90
18777;DHT22;9517;51.174;4.160;2023-09-19T13:10:11;21.00;99.90
18777;DHT22;9517;51.174;4.160;2023-09-19T13:12:42;20.90;99.90
18777;DHT22;9517;51.174;4.160;2023-09-19T13:15:14;21.00;99.90
18777;DHT22;9517;51.174;4.160;2023-09-19T13:17:46;20.90;99.90
18777;DHT22;9517;51.174;4.160;2023-09-19T13:20:24;20.90;99.90
18777;DHT22;9517;51.174;4.160;2023-09-19T13:22:55;20.90;99.90
18777;DHT22;9517;51.174;4.160;2023-09-19T13:25:26;20.90;99.90
18777;DHT22;9517;51.174;4.160;2023-09-19T13:27:57;20.80;99.90
18777;DHT22;9517;51.174;4.160;2023-09-19T13:30:26;20.80;99.90
18777;DHT22;9517;51.174;4.160;2023-09-19T13:33:04;20.90;99.90
18777;DHT22;9517;51.174;4.160;2023-09-19T13:35:33;20.80;99.90
18777;DHT22;9517;51.174;4.160;2023-09-19T13:38:01;21.00;99.90
18777;DHT22;9517;51.174;4.160;2023-09-19T13:40:29;21.70;99.90
18777;DHT22;9517;51.174;4.160;2023-09-19T13:43:00;22.60;99.90
18777;DHT22;9517;51.174;4.160;2023-09-19T13:45:28;22.70;99.90
18777;DHT22;9517;51.174;4.160;2023-09-19T13:47:56;22.30;99.90
18777;DHT22;9517;51.174;4.160;2023-09-19T13:50:23;22.00;99.90
18777;DHT22;9517;51.174;4.160;2023-09-19T13:52:51;21.90;99.90
18777;DHT22;9517;51.174;4.160;2023-09-19T13:55:20;22.30;99.90
18777;DHT22;9517;51.174;4.160;2023-09-19T13:57:47;23.10;99.90
18777;DHT22;9517;51.174;4.160;2023-09-19T14:00:15;23.50;99.90
18777;DHT22;9517;51.174;4.160;2023-09-19T14:02:43;23.90;99.90
18777;DHT22;9517;51.174;4.160;2023-09-19T14:05:11;23.60;99.90
18777;DHT22;9517;51.174;4.160;2023-09-19T14:07:40;23.60;99.90
18777;DHT22;9517;51.174;4.160;2023-09-19T14:10:09;22.70;99.90
18777;DHT22;9517;51.174;4.160;2023-09-19T14:12:38;22.30;99.90
18777;DHT22;9517;51.174;4.160;2023-09-19T14:15:07;22.00;99.90
18777;DHT22;9517;51.174;4.160;2023-09-19T14:17:35;21.70;99.90
18777;DHT22;9517;51.174;4.160;2023-09-19T14:20:02;21.60;99.90
18777;DHT22;9517;51.174;4.160;2023-09-19T14:22:32;21.30;99.90
18777;DHT22;9517;51.174;4.160;2023-09-19T14:24:59;21.10;99.90
18777;DHT22;9517;51.174;4.160;2023-09-19T14:27:26;20.90;99.90
18777;DHT22;9517;51.174;4.160;2023-09-19T14:29:55;21.00;99.90
18777;DHT22;9517;51.174;4.160;2023-09-19T14:32:22;21.00;99.90
18777;DHT22;9517;51.174;4.160;2023-09-19T14:34:49;20.90;99.90
18777;DHT22;9517;51.174;4.160;2023-09-19T14:37:17;20.90;99.90
18777;DHT22;9517;51.174;4.160;2023-09-19T14:39:46;20.90;99.90
18777;DHT22;9517;51.174;4.160;2023-09-19T14:42:13;20.90;99.90
18777;DHT22;9517;51.174;4.160;2023-09-19T14:44:43;20.90;99.90
18777;DHT22;9517;51.174;4.160;2023-09-19T14:47:11;20.90;99.90
18777;DHT22;9517;51.174;4.160;2023-09-19T14:49:39;20.60;99.90
18777;DHT22;9517;51.174;4.160;2023-09-19T14:52:08;20.50;99.90
18777;DHT22;9517;51.174;4.160;2023-09-19T14:54:35;20.40;99.90
18777;DHT22;9517;51.174;4.160;2023-09-19T14:57:04;20.30;99.90
18777;DHT22;9517;51.174;4.160;2023-09-19T14:59:31;20.20;99.90
18777;DHT22;9517;51.174;4.160;2023-09-19T15:01:59;20.20;99.90
18777;DHT22;9517;51.174;4.160;2023-09-19T15:04:28;20.20;99.90
18777;DHT22;9517;51.174;4.160;2023-09-19T15:06:56;20.10;99.90
18777;DHT22;9517;51.174;4.160;2023-09-19T15:09:24;20.10;99.90
18777;DHT22;9517;51.174;4.160;2023-09-19T15:11:52;20.00;99.90
18777;DHT22;9517;51.174;4.160;2023-09-19T15:14:20;20.10;99.90
18777;DHT22;9517;51.174;4.160;2023-09-19T15:16:48;20.00;99.90
18777;DHT22;9517;51.174;4.160;2023-09-19T15:19:15;20.10;99.90
18777;DHT22;9517;51.174;4.160;2023-09-19T15:21:44;20.10;99.90
18777;DHT22;9517;51.174;4.160;2023-09-19T15:24:11;20.30;99.90
18777;DHT22;9517;51.174;4.160;2023-09-19T15:26:39;20.30;99.90
18777;DHT22;9517;51.174;4.160;2023-09-19T15:29:07;20.30;99.90
18777;DHT22;9517;51.174;4.160;2023-09-19T15:31:35;20.20;99.90
18777;DHT22;9517;51.174;4.160;2023-09-19T15:34:04;20.10;99.90
18777;DHT22;9517;51.174;4.160;2023-09-19T15:36:33;20.00;99.90
18777;DHT22;9517;51.174;4.160;2023-09-19T16:39:41;19.60;99.90
18777;DHT22;9517;51.174;4.160;2023-09-19T16:42:09;19.60;99.90
18777;DHT22;9517;51.174;4.160;2023-09-19T16:44:38;19.50;99.90
18777;DHT22;9517;51.174;4.160;2023-09-19T17:00:56;18.90;99.90
18777;DHT22;9517;51.174;4.160;2023-09-19T17:04:56;18.90;99.90
18777;DHT22;9517;51.174;4.160;2023-09-19T17:07:14;18.70;99.90
18777;DHT22;9517;51.174;4.160;2023-09-19T17:09:51;18.40;99.90
18777;DHT22;9517;51.174;4.160;2023-09-19T17:12:18;18.30;99.90
18777;DHT22;9517;51.174;4.160;2023-09-19T17:14:45;18.20;99.90
18777;DHT22;9517;51.174;4.160;2023-09-19T17:17:14;18.10;99.90
18777;DHT22;9517;51.174;4.160;2023-09-19T17:19:41;18.10;99.90
18777;DHT22;9517;51.174;4.160;2023-09-19T17:22:09;17.90;99.90
18777;DHT22;9517;51.174;4.160;2023-09-19T17:24:36;17.80;99.90
18777;DHT22;9517;51.174;4.160;2023-09-19T17:27:04;17.70;99.90
18777;DHT22;9517;51.174;4.160;2023-09-19T17:29:47;17.70;99.90
18777;DHT22;9517;51.174;4.160;2023-09-19T17:36:45;17.60;99.90